< < Back
Terminal Aerodrome Forecast


Current Version              Previous Versions:   1  2  3  4  5  6  7  8  9  

Terminal Aerodrome Forecast

792
FTUS42 KMLB 011700
TAFMCO
TAF
KMCO 011720Z 0118/0218 VRB05KT P6SM SCT035 BKN250
     FM012000 12005KT P6SM VCTS BKN040CB
     FM020000 14006KT P6SM SCT040 BKN100 OVC120
     FM021400 VRB03KT P6SM SCT020 SCT250=



Latest METAR

573
SAUS70 KWBC 012200 RRP
MTRMCO
METAR KMCO 012153Z 10008KT 10SM SCT031 BKN065 BKN120 OVC250 28/24 A2994
RMK AO2 RAB2059E42 SLP138 CB DSNT SE-S MOV SW P0003
T02780244


USA.gov is the U.S. government's official web portal to all federal, state and local government web resources and services.